createdAt,value
2024-05-09T00:00:56.505Z,79.12
2024-05-09T00:01:57.522Z,78.97
2024-05-09T00:02:58.946Z,78.80
2024-05-09T00:03:59.876Z,79.50
2024-05-09T00:05:00.949Z,79.41
2024-05-09T00:06:02.155Z,78.29
2024-05-09T00:07:03.214Z,79.68
2024-05-09T00:08:04.972Z,77.93
2024-05-09T00:09:05.872Z,78.75
2024-05-09T00:10:11.686Z,78.55
2024-05-09T00:11:19.503Z,79.73
2024-05-09T00:12:20.550Z,80.39
2024-05-09T00:13:21.526Z,78.98
2024-05-09T00:14:22.489Z,78.33
2024-05-09T00:15:23.363Z,80.02
2024-05-09T00:16:24.274Z,79.28
2024-05-09T00:17:25.281Z,79.02
2024-05-09T00:18:26.378Z,79.03
2024-05-09T00:19:27.557Z,78.24
2024-05-09T00:20:36.452Z,78.64
2024-05-09T00:21:42.147Z,79.10
2024-05-09T00:22:43.015Z,80.00
2024-05-09T00:23:43.949Z,79.64
2024-05-09T00:24:44.799Z,79.79
2024-05-09T00:25:48.351Z,78.93
2024-05-09T00:26:49.231Z,79.22
2024-05-09T00:27:50.068Z,79.83
2024-05-09T00:28:51.069Z,79.56
2024-05-09T00:29:52.016Z,79.66
2024-05-09T00:30:52.849Z,79.71
2024-05-09T00:31:53.761Z,79.13
2024-05-09T00:32:54.754Z,79.27
2024-05-09T00:33:55.815Z,79.59
2024-05-09T00:34:56.876Z,79.41
2024-05-09T00:35:57.777Z,79.43
2024-05-09T00:36:58.611Z,79.34
2024-05-09T00:37:59.772Z,78.79
2024-05-09T00:39:00.809Z,79.17
2024-05-09T00:40:01.675Z,79.28
2024-05-09T00:41:02.584Z,79.13
2024-05-09T00:42:03.664Z,79.33
2024-05-09T00:43:07.121Z,78.65
2024-05-09T00:44:08.128Z,79.28
2024-05-09T00:45:09.030Z,77.93
2024-05-09T00:46:09.884Z,77.81
2024-05-09T00:47:10.846Z,78.05
2024-05-09T00:48:14.048Z,77.33
2024-05-09T00:49:17.288Z,77.92
2024-05-09T00:50:23.032Z,78.58
2024-05-09T00:51:30.687Z,77.85
2024-05-09T00:52:31.578Z,78.96
2024-05-09T00:53:32.659Z,78.78
2024-05-09T00:54:33.564Z,78.74
2024-05-09T00:55:34.560Z,78.76
2024-05-09T00:56:35.485Z,79.48
2024-05-09T00:57:36.373Z,79.69
2024-05-09T00:58:37.229Z,79.23
2024-05-09T00:59:38.195Z,80.04
2024-05-09T01:00:41.023Z,79.67
2024-05-09T01:01:42.698Z,79.55
2024-05-09T01:02:43.814Z,79.17
2024-05-09T01:03:46.487Z,79.74
2024-05-09T01:04:49.231Z,79.27
2024-05-09T01:05:50.991Z,79.18
2024-05-09T01:06:52.076Z,78.89
2024-05-09T01:07:52.962Z,79.09
2024-05-09T01:08:53.828Z,79.48
2024-05-09T01:09:54.664Z,79.99
2024-05-09T01:10:55.634Z,79.61
2024-05-09T01:11:56.638Z,79.19
2024-05-09T01:12:57.502Z,78.95
2024-05-09T01:13:58.375Z,79.42
2024-05-09T01:14:59.226Z,79.40
2024-05-09T01:16:00.100Z,79.68
2024-05-09T01:17:00.988Z,80.44
2024-05-09T01:18:05.762Z,79.67
2024-05-09T01:19:09.434Z,79.79
2024-05-09T01:20:12.998Z,79.11
2024-05-09T01:21:20.736Z,78.73
2024-05-09T01:22:21.616Z,78.54
2024-05-09T01:23:22.553Z,78.38
2024-05-09T01:24:23.439Z,79.14
2024-05-09T01:25:24.268Z,79.58
2024-05-09T01:26:25.205Z,79.46
2024-05-09T01:27:26.105Z,79.31
2024-05-09T01:28:26.934Z,79.74
2024-05-09T01:29:27.865Z,79.36
2024-05-09T01:30:34.434Z,79.55
2024-05-09T01:31:37.646Z,80.24
2024-05-09T01:32:38.639Z,80.43
2024-05-09T01:33:39.910Z,80.55
2024-05-09T01:34:40.899Z,79.87
2024-05-09T01:35:42.773Z,79.38
2024-05-09T01:36:44.090Z,79.64
2024-05-09T01:37:45.035Z,80.18
2024-05-09T01:38:45.920Z,80.56
2024-05-09T01:39:46.776Z,80.90
2024-05-09T01:40:47.727Z,80.99
2024-05-09T01:41:48.566Z,81.23
2024-05-09T01:42:49.397Z,80.64
2024-05-09T01:43:50.329Z,80.69
2024-05-09T01:44:51.163Z,80.10
2024-05-09T01:45:52.001Z,79.90
2024-05-09T01:46:52.881Z,80.32
2024-05-09T01:47:53.904Z,80.02
2024-05-09T01:48:55.035Z,80.22
2024-05-09T01:49:56.044Z,79.76
2024-05-09T01:50:56.929Z,79.70
2024-05-09T01:51:57.835Z,80.52
2024-05-09T01:52:58.711Z,80.12
2024-05-09T01:53:59.576Z,79.23
2024-05-09T01:55:03.518Z,79.49
2024-05-09T01:56:07.217Z,79.97
2024-05-09T01:57:08.089Z,80.28
2024-05-09T01:58:09.103Z,80.61
2024-05-09T01:59:10.071Z,80.24
2024-05-09T02:01:13.738Z,80.56
2024-05-09T02:02:14.917Z,79.09
2024-05-09T02:03:17.668Z,80.29
2024-05-09T02:04:19.300Z,79.56
2024-05-09T02:05:20.431Z,80.48
2024-05-09T02:06:21.290Z,79.69
2024-05-09T02:07:22.174Z,79.58
2024-05-09T02:08:23.091Z,78.91
2024-05-09T02:09:24.688Z,79.69
2024-05-09T02:10:32.058Z,79.32
2024-05-09T02:11:41.421Z,79.74
2024-05-09T02:12:42.341Z,79.38
2024-05-09T02:13:43.251Z,78.48
2024-05-09T02:14:44.140Z,79.58
2024-05-09T02:15:45.146Z,79.02
2024-05-09T02:16:46.762Z,79.56
2024-05-09T02:17:47.888Z,79.53
2024-05-09T02:18:49.041Z,79.12
2024-05-09T02:19:50.055Z,79.34
2024-05-09T02:20:50.938Z,78.62
2024-05-09T02:21:51.831Z,79.80
2024-05-09T02:22:52.892Z,79.18
2024-05-09T02:23:53.760Z,79.48
2024-05-09T02:24:54.588Z,79.92
2024-05-09T02:25:55.487Z,80.01
2024-05-09T02:26:56.373Z,79.46
2024-05-09T02:27:57.258Z,78.96
2024-05-09T02:28:58.563Z,79.15
2024-05-09T02:29:59.406Z,78.57
2024-05-09T02:31:00.294Z,77.97
2024-05-09T02:32:01.340Z,78.70
2024-05-09T02:33:02.395Z,78.28
2024-05-09T02:34:03.594Z,77.65
2024-05-09T02:35:04.892Z,78.99
2024-05-09T02:36:06.061Z,78.29
2024-05-09T02:37:06.954Z,78.36
2024-05-09T02:38:10.980Z,78.80
2024-05-09T02:39:11.999Z,78.36
2024-05-09T02:40:14.986Z,79.15
2024-05-09T02:41:19.220Z,78.29
2024-05-09T02:42:20.070Z,79.15
2024-05-09T02:43:20.907Z,78.90
2024-05-09T02:44:21.774Z,78.71
2024-05-09T02:45:23.785Z,78.51
2024-05-09T02:46:24.624Z,78.83
2024-05-09T02:47:25.613Z,79.52
2024-05-09T02:48:26.769Z,79.39
2024-05-09T02:49:27.835Z,78.59
2024-05-09T02:50:34.335Z,78.12
2024-05-09T02:51:39.513Z,79.31
2024-05-09T02:52:40.342Z,78.69
2024-05-09T02:53:41.247Z,79.05
2024-05-09T02:54:42.131Z,78.20
2024-05-09T02:55:43.430Z,78.13
2024-05-09T02:56:44.377Z,78.48
2024-05-09T02:57:45.220Z,78.68
2024-05-09T02:58:46.081Z,78.28
2024-05-09T02:59:46.936Z,78.88
2024-05-09T03:00:47.811Z,78.11
2024-05-09T03:01:48.790Z,77.70
2024-05-09T03:02:49.858Z,77.88
2024-05-09T03:03:51.274Z,78.36
2024-05-09T03:04:52.532Z,77.75
2024-05-09T03:05:53.430Z,78.39
2024-05-09T03:06:54.268Z,77.91
2024-05-09T03:07:55.159Z,77.37
2024-05-09T03:08:56.012Z,77.30
2024-05-09T03:09:56.848Z,77.83
2024-05-09T03:10:57.717Z,77.26
2024-05-09T03:11:58.783Z,77.60
2024-05-09T03:12:59.697Z,77.54
2024-05-09T03:14:00.643Z,77.12
2024-05-09T03:15:01.517Z,77.25
2024-05-09T03:16:02.392Z,78.27
2024-05-09T03:17:03.314Z,77.94
2024-05-09T03:18:04.952Z,77.85
2024-05-09T03:19:06.081Z,78.37
2024-05-09T03:20:16.996Z,77.84
2024-05-09T03:21:21.480Z,78.06
2024-05-09T03:22:22.327Z,78.66
2024-05-09T03:23:23.191Z,78.76
2024-05-09T03:24:24.056Z,79.24
2024-05-09T03:25:24.955Z,79.36
2024-05-09T03:26:25.923Z,78.57
2024-05-09T03:27:26.866Z,78.92
2024-05-09T03:28:27.710Z,78.35
2024-05-09T03:29:28.659Z,78.39
2024-05-09T03:30:38.107Z,78.04
2024-05-09T03:31:42.606Z,77.72
2024-05-09T03:32:43.640Z,78.03
2024-05-09T03:33:44.800Z,78.75
2024-05-09T03:34:45.850Z,78.79
2024-05-09T03:35:47.374Z,78.71
2024-05-09T03:36:48.387Z,78.80
2024-05-09T03:37:49.231Z,77.99
2024-05-09T03:38:50.090Z,78.66
2024-05-09T03:39:51.220Z,78.32
2024-05-09T03:40:52.108Z,78.26
2024-05-09T03:41:52.971Z,78.24
2024-05-09T03:42:53.796Z,79.15
2024-05-09T03:43:54.663Z,78.81
2024-05-09T03:44:56.829Z,78.87
2024-05-09T03:45:57.692Z,79.18
2024-05-09T03:46:58.574Z,79.66
2024-05-09T03:47:59.670Z,80.00
2024-05-09T03:49:00.753Z,79.22
2024-05-09T03:50:01.857Z,78.61
2024-05-09T03:51:03.181Z,78.86
2024-05-09T03:52:04.457Z,78.22
2024-05-09T03:53:09.498Z,77.75
2024-05-09T03:54:10.373Z,77.99
2024-05-09T03:55:11.221Z,77.93
2024-05-09T03:56:12.112Z,78.29
2024-05-09T03:57:13.052Z,77.97
2024-05-09T03:58:13.896Z,79.27
2024-05-09T03:59:14.752Z,79.91
2024-05-09T04:00:22.101Z,78.59
2024-05-09T04:01:28.858Z,78.81
2024-05-09T04:02:29.852Z,79.32
2024-05-09T04:03:30.887Z,79.17
2024-05-09T04:04:32.014Z,78.61
2024-05-09T04:05:33.191Z,79.32
2024-05-09T04:06:34.143Z,79.02
2024-05-09T04:07:36.486Z,79.13
2024-05-09T04:08:37.521Z,79.50
2024-05-09T04:09:38.478Z,79.73
2024-05-09T04:10:39.851Z,79.24
2024-05-09T04:11:40.839Z,79.38
2024-05-09T04:12:45.007Z,78.69
2024-05-09T04:13:45.897Z,79.33
2024-05-09T04:14:46.777Z,78.77
2024-05-09T04:15:47.624Z,78.43
2024-05-09T04:16:48.491Z,78.87
2024-05-09T04:17:50.362Z,79.64
2024-05-09T04:18:51.418Z,78.92
2024-05-09T04:19:52.305Z,79.18
2024-05-09T04:20:53.292Z,78.97
2024-05-09T04:21:54.132Z,79.08
2024-05-09T04:22:55.007Z,79.74
2024-05-09T04:23:55.855Z,78.06
2024-05-09T04:24:56.727Z,78.49
2024-05-09T04:25:57.602Z,78.56
2024-05-09T04:26:58.466Z,78.55
2024-05-09T04:27:59.290Z,79.24
2024-05-09T04:29:00.163Z,78.46
2024-05-09T04:30:01.022Z,79.33
2024-05-09T04:31:01.869Z,78.89
2024-05-09T04:32:03.956Z,79.11
2024-05-09T04:33:05.237Z,77.71
2024-05-09T04:34:06.536Z,78.67
2024-05-09T04:35:07.564Z,78.52
2024-05-09T04:36:08.497Z,78.52
2024-05-09T04:37:09.351Z,79.02
2024-05-09T04:38:13.843Z,78.85
2024-05-09T04:39:15.310Z,78.83
2024-05-09T04:40:24.296Z,78.25
2024-05-09T04:41:32.297Z,78.46
2024-05-09T04:42:33.180Z,78.55
2024-05-09T04:43:34.225Z,78.29
2024-05-09T04:44:35.264Z,78.53
2024-05-09T04:45:36.128Z,79.18
2024-05-09T04:46:38.672Z,79.62
2024-05-09T04:47:39.642Z,79.49
2024-05-09T04:48:40.707Z,78.43
2024-05-09T04:49:41.776Z,78.40
2024-05-09T04:50:42.803Z,77.98
2024-05-09T04:51:43.774Z,77.35
2024-05-09T04:52:44.669Z,78.33
2024-05-09T04:53:45.600Z,78.75
2024-05-09T04:54:46.455Z,78.13
2024-05-09T04:55:47.446Z,77.90
2024-05-09T04:56:48.391Z,79.31
2024-05-09T04:57:54.638Z,78.94
2024-05-09T04:58:55.508Z,78.72
2024-05-09T04:59:56.900Z,78.96
2024-05-09T05:00:57.738Z,78.86
2024-05-09T05:01:58.710Z,78.73
2024-05-09T05:02:59.927Z,78.34
2024-05-09T05:04:01.052Z,78.09
2024-05-09T05:05:02.519Z,76.46
2024-05-09T05:06:03.597Z,75.55
2024-05-09T05:07:04.706Z,76.14
2024-05-09T05:08:10.457Z,77.09
2024-05-09T05:09:11.330Z,76.86
2024-05-09T05:10:17.900Z,76.95
2024-05-09T05:11:26.048Z,76.66
2024-05-09T05:12:45.666Z,77.43
2024-05-09T05:13:46.507Z,77.33
2024-05-09T05:14:47.343Z,75.87
2024-05-09T05:15:49.230Z,75.94
2024-05-09T05:16:50.175Z,76.32
2024-05-09T05:17:51.262Z,77.50
2024-05-09T05:18:52.382Z,76.59
2024-05-09T05:19:53.505Z,75.65
2024-05-09T05:20:54.519Z,75.67
2024-05-09T05:21:55.387Z,75.74
2024-05-09T05:22:56.248Z,75.40
2024-05-09T05:23:57.096Z,74.64
2024-05-09T05:24:57.966Z,74.13
2024-05-09T05:25:58.846Z,75.85
2024-05-09T05:26:59.690Z,75.56
2024-05-09T05:28:03.555Z,75.81
2024-05-09T05:29:04.510Z,75.76
2024-05-09T05:30:07.535Z,75.17
2024-05-09T05:31:10.378Z,73.79
2024-05-09T05:32:11.483Z,74.10
2024-05-09T05:33:13.172Z,74.60
2024-05-09T05:34:14.304Z,74.59
2024-05-09T05:35:15.167Z,75.10
2024-05-09T05:36:15.998Z,75.02
2024-05-09T05:37:16.824Z,74.38
2024-05-09T05:38:17.974Z,75.66
2024-05-09T05:39:18.936Z,74.31
2024-05-09T05:40:28.170Z,74.20
2024-05-09T05:41:36.329Z,73.36
2024-05-09T05:42:37.180Z,73.42
2024-05-09T05:43:38.052Z,74.71
2024-05-09T05:44:38.906Z,74.02
2024-05-09T05:45:39.790Z,73.86
2024-05-09T05:46:40.664Z,73.24
2024-05-09T05:47:42.146Z,73.56
2024-05-09T05:48:43.303Z,72.73
2024-05-09T05:49:44.304Z,73.06
2024-05-09T05:50:45.291Z,73.88
2024-05-09T05:51:46.201Z,74.77
2024-05-09T05:52:47.122Z,74.27
2024-05-09T05:53:48.084Z,73.58
2024-05-09T05:54:50.593Z,71.87
2024-05-09T05:55:51.536Z,71.78
2024-05-09T05:56:52.429Z,70.26
2024-05-09T05:57:53.288Z,70.42
2024-05-09T05:58:54.200Z,70.59
2024-05-09T05:59:55.039Z,70.23
2024-05-09T06:00:56.349Z,70.82
2024-05-09T06:01:57.305Z,71.43
2024-05-09T06:02:58.251Z,72.07
2024-05-09T06:04:00.766Z,72.26
2024-05-09T06:05:02.064Z,72.31
2024-05-09T06:06:03.067Z,73.09
2024-05-09T06:07:04.233Z,72.16
2024-05-09T06:08:05.528Z,70.23
2024-05-09T06:09:06.443Z,69.76
2024-05-09T06:10:14.232Z,68.57
2024-05-09T06:11:21.992Z,70.79
2024-05-09T06:12:23.152Z,70.97
2024-05-09T06:13:24.092Z,71.54
2024-05-09T06:14:24.989Z,70.62
2024-05-09T06:15:26.231Z,71.24
2024-05-09T06:16:27.081Z,71.12
2024-05-09T06:17:28.084Z,73.32
2024-05-09T06:18:29.303Z,72.63
2024-05-09T06:19:30.474Z,71.28
2024-05-09T06:20:35.972Z,72.70
2024-05-09T06:21:38.844Z,72.13
2024-05-09T06:22:39.679Z,70.01
2024-05-09T06:23:46.699Z,70.28
2024-05-09T06:24:47.621Z,70.03
2024-05-09T06:25:48.545Z,70.43
2024-05-09T06:26:49.445Z,72.17
2024-05-09T06:27:50.309Z,70.95
2024-05-09T06:28:51.223Z,71.86
2024-05-09T06:29:52.094Z,71.68
2024-05-09T06:30:52.974Z,72.15
2024-05-09T06:31:55.422Z,72.19
2024-05-09T06:32:57.569Z,70.65
2024-05-09T06:33:58.686Z,70.76
2024-05-09T06:34:59.599Z,69.32
2024-05-09T06:36:00.457Z,69.70
2024-05-09T06:37:01.288Z,69.69
2024-05-09T06:38:02.497Z,69.25
2024-05-09T06:39:03.606Z,69.39
2024-05-09T06:40:07.186Z,69.51
2024-05-09T06:41:08.265Z,69.41
2024-05-09T06:42:09.104Z,69.95
2024-05-09T06:43:13.673Z,69.21
2024-05-09T06:44:14.712Z,69.00
2024-05-09T06:45:15.554Z,69.20
2024-05-09T06:46:16.378Z,65.51
2024-05-09T06:47:17.292Z,66.63
2024-05-09T06:48:18.801Z,64.49
2024-05-09T06:49:20.277Z,65.10
2024-05-09T06:50:28.187Z,65.53
2024-05-09T06:51:35.420Z,65.60
2024-05-09T06:52:36.276Z,64.26
2024-05-09T06:53:38.401Z,64.73
2024-05-09T06:54:39.243Z,65.54
2024-05-09T06:55:40.126Z,65.38
2024-05-09T06:56:41.028Z,65.32
2024-05-09T06:57:43.155Z,65.33
2024-05-09T06:58:44.121Z,65.47
2024-05-09T06:59:45.025Z,65.69
2024-05-09T07:00:45.926Z,66.73
2024-05-09T07:01:46.788Z,66.70
2024-05-09T07:02:47.980Z,66.70
2024-05-09T07:03:49.005Z,67.35
2024-05-09T07:04:49.945Z,64.69
2024-05-09T07:05:50.896Z,64.94
2024-05-09T07:06:51.758Z,63.83
2024-05-09T07:07:52.656Z,65.60
2024-05-09T07:08:53.622Z,64.83
2024-05-09T07:09:54.468Z,64.49
2024-05-09T07:10:55.583Z,64.37
2024-05-09T07:11:56.723Z,66.45
2024-05-09T07:12:57.620Z,65.03
2024-05-09T07:13:58.564Z,64.82
2024-05-09T07:14:59.450Z,65.91
2024-05-09T07:16:00.292Z,66.66
2024-05-09T07:17:01.313Z,65.73
2024-05-09T07:18:09.516Z,63.84
2024-05-09T07:19:10.689Z,64.05
2024-05-09T07:20:19.479Z,64.16
2024-05-09T07:21:24.284Z,65.26
2024-05-09T07:22:27.463Z,66.12
2024-05-09T07:23:28.415Z,66.56
2024-05-09T07:24:29.277Z,66.73
2024-05-09T07:25:30.462Z,63.38
2024-05-09T07:26:31.597Z,64.71
2024-05-09T07:27:33.252Z,66.15
2024-05-09T07:28:34.088Z,64.44
2024-05-09T07:29:38.367Z,65.15
2024-05-09T07:30:39.806Z,65.87
2024-05-09T07:31:40.660Z,65.39
2024-05-09T07:32:43.831Z,64.84
2024-05-09T07:33:44.939Z,65.50
2024-05-09T07:34:45.894Z,64.59
2024-05-09T07:35:46.793Z,65.27
2024-05-09T07:36:48.523Z,61.85
2024-05-09T07:37:49.403Z,65.36
2024-05-09T07:38:50.299Z,63.76
2024-05-09T07:39:51.213Z,63.79
2024-05-09T07:40:52.117Z,64.63
2024-05-09T07:41:54.183Z,64.69
2024-05-09T07:42:55.026Z,64.43
2024-05-09T07:43:55.888Z,63.17
2024-05-09T07:45:00.986Z,63.33
2024-05-09T07:47:14.031Z,63.57
2024-05-09T07:48:57.510Z,65.35
2024-05-09T07:51:32.967Z,63.94
2024-05-09T07:53:30.109Z,62.03
2024-05-09T07:53:46.160Z,61.43
2024-05-09T07:54:50.611Z,60.03
2024-05-09T07:55:51.687Z,60.47
2024-05-09T07:56:52.958Z,60.18
2024-05-09T07:57:54.081Z,60.26
2024-05-09T07:58:54.958Z,58.29
2024-05-09T07:59:55.811Z,56.91
2024-05-09T08:00:56.799Z,57.51
2024-05-09T08:01:57.834Z,59.99
2024-05-09T08:02:58.768Z,58.50
2024-05-09T08:03:59.740Z,59.35
2024-05-09T08:05:00.846Z,60.94
2024-05-09T08:06:01.758Z,58.87
2024-05-09T08:07:02.700Z,56.49
2024-05-09T08:08:03.804Z,58.80
2024-05-09T08:09:08.224Z,59.24
2024-05-09T08:10:21.958Z,56.40
2024-05-09T08:11:25.663Z,57.47
2024-05-09T08:12:26.556Z,57.33
2024-05-09T08:13:27.428Z,58.21
2024-05-09T08:14:28.275Z,59.32
2024-05-09T08:15:29.393Z,58.57
2024-05-09T08:16:30.352Z,60.38
2024-05-09T08:17:31.296Z,61.36
2024-05-09T08:18:32.508Z,61.44
2024-05-09T08:19:35.324Z,59.83
2024-05-09T08:20:37.028Z,60.74
2024-05-09T08:21:37.883Z,58.32
2024-05-09T08:22:38.765Z,58.51
2024-05-09T08:23:39.631Z,57.33
2024-05-09T08:24:41.480Z,58.30
2024-05-09T08:25:42.538Z,57.22
2024-05-09T08:26:43.381Z,60.63
2024-05-09T08:27:45.000Z,58.36
2024-05-09T08:28:46.066Z,59.71
2024-05-09T08:29:46.937Z,60.98
2024-05-09T08:30:47.979Z,61.31
2024-05-09T08:31:48.951Z,60.50
2024-05-09T08:32:49.872Z,61.26
2024-05-09T08:33:54.153Z,59.96
2024-05-09T08:34:55.142Z,60.07
2024-05-09T08:35:55.990Z,61.62
2024-05-09T08:36:59.528Z,63.11
2024-05-09T08:38:03.224Z,61.16
2024-05-09T08:39:04.215Z,58.44
2024-05-09T08:40:08.482Z,60.24
2024-05-09T08:41:12.514Z,59.60
2024-05-09T08:42:14.157Z,57.40
2024-05-09T08:43:15.159Z,59.06
2024-05-09T08:44:19.822Z,58.41
2024-05-09T08:45:20.938Z,58.52
2024-05-09T08:46:21.899Z,57.14
2024-05-09T08:47:27.694Z,59.29
2024-05-09T08:48:28.763Z,59.30
2024-05-09T08:49:29.886Z,58.43
2024-05-09T08:50:37.884Z,59.58
2024-05-09T08:51:40.759Z,59.40
2024-05-09T08:52:41.631Z,57.59
2024-05-09T08:53:42.461Z,54.84
2024-05-09T08:54:43.936Z,54.42
2024-05-09T08:55:45.098Z,54.10
2024-05-09T08:56:45.970Z,54.84
2024-05-09T08:57:46.861Z,53.40
2024-05-09T08:58:50.866Z,54.62
2024-05-09T08:59:51.785Z,54.60
2024-05-09T09:00:52.821Z,55.31
2024-05-09T09:01:53.892Z,54.13
2024-05-09T09:02:54.871Z,52.70
2024-05-09T09:04:02.899Z,53.94
2024-05-09T09:05:10.155Z,55.76
2024-05-09T09:06:13.368Z,57.03
2024-05-09T09:07:14.252Z,55.63
2024-05-09T09:08:15.177Z,56.63
2024-05-09T09:09:16.013Z,55.66
2024-05-09T09:10:29.145Z,55.81
2024-05-09T09:11:32.667Z,55.29
2024-05-09T09:12:34.026Z,56.75
2024-05-09T09:13:34.961Z,58.62
2024-05-09T09:14:35.811Z,56.37
2024-05-09T09:15:48.946Z,57.69
2024-05-09T09:16:50.767Z,59.27
2024-05-09T09:17:58.167Z,57.26
2024-05-09T09:18:59.232Z,57.66
2024-05-09T09:20:00.613Z,55.50
2024-05-09T09:21:02.000Z,56.70
2024-05-09T09:22:02.930Z,56.15
2024-05-09T09:23:04.334Z,56.04
2024-05-09T09:24:09.760Z,56.95
2024-05-09T09:25:10.903Z,59.79
2024-05-09T09:26:15.645Z,56.29
2024-05-09T09:27:16.513Z,58.94
2024-05-09T09:28:17.533Z,58.29
2024-05-09T09:29:19.592Z,57.99
2024-05-09T09:30:31.835Z,58.14
2024-05-09T09:31:38.204Z,57.44
2024-05-09T09:32:39.104Z,57.35
2024-05-09T09:33:45.702Z,57.05
2024-05-09T09:34:46.906Z,53.52
2024-05-09T09:35:47.790Z,53.59
2024-05-09T09:36:48.650Z,52.93
2024-05-09T09:37:49.901Z,54.81
2024-05-09T09:38:50.939Z,55.13
2024-05-09T09:39:51.915Z,49.83
2024-05-09T09:40:52.836Z,50.03
2024-05-09T09:41:55.034Z,51.10
2024-05-09T09:42:56.639Z,48.91
2024-05-09T09:43:57.519Z,50.02
2024-05-09T09:45:04.665Z,48.03
2024-05-09T09:46:08.615Z,48.06
2024-05-09T09:47:11.494Z,48.41
2024-05-09T09:48:13.668Z,47.55
2024-05-09T09:49:15.928Z,47.94
2024-05-09T09:50:23.850Z,45.44
2024-05-09T09:51:28.935Z,44.12
2024-05-09T09:52:29.839Z,46.35
2024-05-09T09:53:33.870Z,45.96
2024-05-09T09:54:34.718Z,47.83
2024-05-09T09:55:36.319Z,49.81
2024-05-09T09:56:37.975Z,43.94
2024-05-09T09:57:39.159Z,46.57
2024-05-09T09:58:40.050Z,45.57
2024-05-09T09:59:42.284Z,49.70
2024-05-09T10:00:43.641Z,47.55
2024-05-09T10:01:45.096Z,47.25
2024-05-09T10:02:46.041Z,45.79
2024-05-09T10:03:47.090Z,45.79
2024-05-09T10:04:48.219Z,44.86
2024-05-09T10:05:49.204Z,47.22
2024-05-09T10:06:52.213Z,50.62
2024-05-09T10:07:53.097Z,50.07
2024-05-09T10:08:53.938Z,50.17
2024-05-09T10:09:55.402Z,49.93
2024-05-09T10:10:56.389Z,50.16
2024-05-09T10:13:07.772Z,48.80
2024-05-09T10:14:09.019Z,49.96
2024-05-09T10:15:10.051Z,47.75
2024-05-09T10:16:11.280Z,46.03
2024-05-09T10:17:12.332Z,46.11
2024-05-09T10:18:13.982Z,46.24
2024-05-09T10:19:27.602Z,44.34
2024-05-09T10:20:40.703Z,44.35
2024-05-09T10:21:47.558Z,45.96
2024-05-09T10:22:49.407Z,45.71
2024-05-09T10:23:57.652Z,44.20
2024-05-09T10:25:05.871Z,45.37
2024-05-09T10:26:06.734Z,43.14
2024-05-09T10:27:07.620Z,45.09
2024-05-09T10:28:11.062Z,47.63
2024-05-09T10:29:15.955Z,46.19
2024-05-09T10:30:26.142Z,42.89
2024-05-09T10:31:34.298Z,43.88
2024-05-09T10:32:38.462Z,45.41
2024-05-09T10:33:40.622Z,45.13
2024-05-09T10:34:42.956Z,45.06
2024-05-09T10:35:50.518Z,42.69
2024-05-09T10:36:52.153Z,43.22
2024-05-09T10:37:55.467Z,42.84
2024-05-09T10:38:56.294Z,47.03
2024-05-09T10:39:57.347Z,44.24
2024-05-09T10:41:01.155Z,43.26
2024-05-09T10:42:02.058Z,44.84
2024-05-09T10:43:05.828Z,45.53
2024-05-09T10:44:10.958Z,45.34
2024-05-09T10:45:12.256Z,43.29
2024-05-09T10:46:17.638Z,44.30
2024-05-09T10:47:19.147Z,45.57
2024-05-09T10:48:20.096Z,46.96
2024-05-09T10:49:21.105Z,47.53
2024-05-09T10:50:28.355Z,45.34
2024-05-09T10:51:32.798Z,46.99
2024-05-09T10:52:33.651Z,46.13
2024-05-09T10:53:41.335Z,45.00
2024-05-09T10:54:42.236Z,46.37
2024-05-09T10:55:43.089Z,45.90
2024-05-09T10:56:43.932Z,43.41
2024-05-09T10:57:44.764Z,45.05
2024-05-09T10:58:48.582Z,44.04
2024-05-09T10:59:49.419Z,43.82
2024-05-09T11:00:50.462Z,42.99
2024-05-09T11:01:51.487Z,43.87
2024-05-09T11:02:52.456Z,42.34
2024-05-09T11:03:53.560Z,43.83
2024-05-09T11:04:54.710Z,42.37
2024-05-09T11:05:55.755Z,40.82
2024-05-09T11:06:56.646Z,40.72
2024-05-09T11:07:57.737Z,42.24
2024-05-09T11:08:58.578Z,42.70
2024-05-09T11:10:00.546Z,40.34
2024-05-09T11:11:03.605Z,41.64
2024-05-09T11:12:04.706Z,41.30
2024-05-09T11:13:05.649Z,42.52
2024-05-09T11:14:12.554Z,44.27
2024-05-09T11:15:15.352Z,45.25
2024-05-09T11:16:19.607Z,43.87
2024-05-09T11:17:20.887Z,42.50
2024-05-09T11:18:26.639Z,43.04
2024-05-09T11:19:36.991Z,42.50
2024-05-09T11:20:38.082Z,43.33
2024-05-09T11:21:39.238Z,44.48
2024-05-09T11:22:40.082Z,43.27
2024-05-09T11:23:40.911Z,42.31
2024-05-09T11:24:41.865Z,44.41
2024-05-09T11:25:55.547Z,43.17
2024-05-09T11:26:56.964Z,43.11
2024-05-09T11:28:01.202Z,44.00
2024-05-09T11:29:02.071Z,44.40
2024-05-09T11:30:04.230Z,46.02
2024-05-09T11:31:08.918Z,48.86
2024-05-09T11:32:12.403Z,45.79
2024-05-09T11:33:14.150Z,45.31
2024-05-09T11:34:15.088Z,43.13
2024-05-09T11:35:15.997Z,43.70
2024-05-09T11:36:16.839Z,43.54
2024-05-09T11:37:17.888Z,45.09
2024-05-09T11:38:18.842Z,45.49
2024-05-09T11:39:19.680Z,43.63
2024-05-09T11:40:25.347Z,43.95
2024-05-09T11:41:30.255Z,47.53
2024-05-09T11:42:31.200Z,47.40
2024-05-09T11:43:32.428Z,47.43
2024-05-09T11:44:33.317Z,45.96
2024-05-09T11:45:34.379Z,46.07
2024-05-09T11:46:35.305Z,47.60
2024-05-09T11:47:37.356Z,42.40
2024-05-09T11:48:38.451Z,42.14
2024-05-09T11:49:39.427Z,44.66
2024-05-09T11:50:40.316Z,45.46
2024-05-09T11:51:41.280Z,40.75
2024-05-09T11:52:42.171Z,44.00
2024-05-09T11:53:43.003Z,44.27
2024-05-09T11:54:43.881Z,41.56
2024-05-09T11:55:44.708Z,43.91
2024-05-09T11:56:45.543Z,47.70
2024-05-09T11:57:46.509Z,47.88
2024-05-09T11:58:47.434Z,47.65
2024-05-09T11:59:48.260Z,46.45
2024-05-09T12:00:49.229Z,46.91
2024-05-09T12:01:50.352Z,49.78
2024-05-09T12:02:53.093Z,49.80
2024-05-09T12:03:54.197Z,46.57
2024-05-09T12:04:55.194Z,47.30
2024-05-09T12:05:56.345Z,47.63
2024-05-09T12:06:57.317Z,47.45
2024-05-09T12:07:58.171Z,44.76
2024-05-09T12:08:59.015Z,46.25
2024-05-09T12:09:59.894Z,47.13
2024-05-09T12:11:01.106Z,43.50
2024-05-09T12:12:02.507Z,44.24
2024-05-09T12:13:05.556Z,46.27
2024-05-09T12:14:07.751Z,45.71
2024-05-09T12:15:08.601Z,44.89
2024-05-09T12:16:09.603Z,43.84
2024-05-09T12:17:10.545Z,43.49
2024-05-09T12:18:11.410Z,45.09
2024-05-09T12:19:12.793Z,43.69
2024-05-09T12:20:21.130Z,46.86
2024-05-09T12:21:26.653Z,42.32
2024-05-09T12:22:27.526Z,42.55
2024-05-09T12:23:28.395Z,43.34
2024-05-09T12:24:29.674Z,44.78
2024-05-09T12:25:30.521Z,44.86
2024-05-09T12:26:31.368Z,43.32
2024-05-09T12:27:32.261Z,47.75
2024-05-09T12:28:33.226Z,41.19
2024-05-09T12:29:36.264Z,46.72
2024-05-09T12:30:41.220Z,45.11
2024-05-09T12:31:42.846Z,46.45
2024-05-09T12:32:44.953Z,46.06
2024-05-09T12:33:46.010Z,44.14
2024-05-09T12:34:46.940Z,43.27
2024-05-09T12:35:50.713Z,43.13
2024-05-09T12:36:52.028Z,44.30
2024-05-09T12:37:52.984Z,44.03
2024-05-09T12:38:53.892Z,43.75
2024-05-09T12:39:54.840Z,44.36
2024-05-09T12:40:55.911Z,45.71
2024-05-09T12:41:56.971Z,44.92
2024-05-09T12:42:57.880Z,44.10
2024-05-09T12:43:58.729Z,42.92
2024-05-09T12:44:59.568Z,43.29
2024-05-09T12:46:02.273Z,41.61
2024-05-09T12:47:03.267Z,42.12
2024-05-09T12:48:07.008Z,44.63
2024-05-09T12:49:08.201Z,43.98
2024-05-09T12:50:18.774Z,46.32
2024-05-09T12:51:25.822Z,45.37
2024-05-09T12:52:27.488Z,46.15
2024-05-09T12:53:28.354Z,47.65
2024-05-09T12:54:30.701Z,43.74
2024-05-09T12:55:37.755Z,45.76
2024-05-09T12:56:45.588Z,44.88
2024-05-09T12:57:46.464Z,44.17
2024-05-09T12:58:47.307Z,44.07
2024-05-09T12:59:48.148Z,42.78
2024-05-09T13:00:50.322Z,46.82
2024-05-09T13:01:51.349Z,44.24
2024-05-09T13:02:52.227Z,46.63
2024-05-09T13:03:53.353Z,44.93
2024-05-09T13:04:55.835Z,42.49
2024-05-09T13:05:56.711Z,43.72
2024-05-09T13:06:57.602Z,43.40
2024-05-09T13:07:59.416Z,46.91
2024-05-09T13:09:00.304Z,43.83
2024-05-09T13:10:01.432Z,44.49
2024-05-09T13:11:02.320Z,43.99
2024-05-09T13:12:03.344Z,43.45
2024-05-09T13:13:04.318Z,41.81
2024-05-09T13:14:05.227Z,42.94
2024-05-09T13:15:06.325Z,44.35
2024-05-09T13:16:07.257Z,44.50
2024-05-09T13:17:08.189Z,43.88
2024-05-09T13:18:09.087Z,43.14
2024-05-09T13:19:09.978Z,43.48
2024-05-09T13:20:18.705Z,43.37
2024-05-09T13:21:26.459Z,43.65
2024-05-09T13:22:27.293Z,43.56
2024-05-09T13:23:28.132Z,44.58
2024-05-09T13:24:29.038Z,44.18